createdAt,value
2023-01-01T00:00:49.280Z,889
2023-01-01T00:01:49.216Z,836
2023-01-01T00:02:49.412Z,1038
2023-01-01T00:03:49.202Z,1041
2023-01-01T00:04:49.156Z,776
2023-01-01T00:05:49.185Z,933
2023-01-01T00:06:49.182Z,918
2023-01-01T00:07:49.369Z,633
2023-01-01T00:08:49.174Z,949
2023-01-01T00:09:49.230Z,1181
2023-01-01T00:10:49.186Z,1302
2023-01-01T00:11:49.156Z,1338
2023-01-01T00:12:49.359Z,997
2023-01-01T00:13:49.166Z,1188
2023-01-01T00:14:49.180Z,870
2023-01-01T00:15:49.194Z,1184
2023-01-01T00:16:49.198Z,1081
2023-01-01T00:17:49.360Z,772
2023-01-01T00:18:49.168Z,987
2023-01-01T00:19:49.178Z,1035
2023-01-01T00:20:49.195Z,1364
2023-01-01T00:21:49.173Z,1416
2023-01-01T00:22:55.337Z,1400
2023-01-01T00:23:49.163Z,970
2023-01-01T00:24:49.169Z,975
2023-01-01T00:25:49.180Z,1302
2023-01-01T00:27:49.373Z,975
2023-01-01T00:28:49.200Z,927
2023-01-01T00:29:49.164Z,1266
2023-01-01T00:30:49.169Z,1231
2023-01-01T00:31:49.206Z,940
2023-01-01T00:32:55.093Z,885
2023-01-01T00:33:49.200Z,1181
2023-01-01T00:34:49.179Z,1204
2023-01-01T00:35:49.165Z,905
2023-01-01T00:36:49.171Z,825
2023-01-01T00:37:49.366Z,1113
2023-01-01T00:38:49.174Z,1274
2023-01-01T00:39:49.186Z,918
2023-01-01T00:40:49.179Z,1259
2023-01-01T00:41:49.181Z,1274
2023-01-01T00:42:49.335Z,920
2023-01-01T00:43:49.235Z,1207
2023-01-01T00:44:49.179Z,1231
2023-01-01T00:45:49.184Z,1231
2023-01-01T00:47:49.378Z,1212
2023-01-01T00:48:49.173Z,885
2023-01-01T00:49:49.188Z,1195
2023-01-01T00:50:49.218Z,940
2023-01-01T00:51:49.185Z,1156
2023-01-01T00:52:49.376Z,872
2023-01-01T00:53:49.178Z,768
2023-01-01T00:54:49.179Z,885
2023-01-01T00:55:49.204Z,853
2023-01-01T00:56:49.177Z,836
2023-01-01T00:57:49.334Z,832
2023-01-01T00:59:00.412Z,1134
2023-01-01T00:59:49.190Z,1001
2023-01-01T01:00:49.205Z,853
2023-01-01T01:02:49.425Z,1090
2023-01-01T01:03:49.185Z,1181
2023-01-01T01:04:49.209Z,1195
2023-01-01T01:05:49.217Z,1212
2023-01-01T01:07:49.382Z,956
2023-01-01T01:08:49.184Z,1198
2023-01-01T01:09:49.214Z,800
2023-01-01T01:10:49.227Z,832
2023-01-01T01:12:49.391Z,1041
2023-01-01T01:13:49.192Z,1153
2023-01-01T01:14:49.204Z,872
2023-01-01T01:15:53.079Z,1153
2023-01-01T01:16:49.266Z,880
2023-01-01T01:17:49.342Z,920
2023-01-01T01:18:49.185Z,1105
2023-01-01T01:19:49.217Z,1118
2023-01-01T01:20:49.217Z,1171
2023-01-01T01:22:49.401Z,1153
2023-01-01T01:23:49.199Z,1128
2023-01-01T01:24:49.218Z,1171
2023-01-01T01:25:49.192Z,865
2023-01-01T01:26:49.222Z,880
2023-01-01T01:27:49.351Z,891
2023-01-01T01:28:50.133Z,897
2023-01-01T01:29:49.239Z,905
2023-01-01T01:30:49.232Z,1134
2023-01-01T01:32:49.419Z,872
2023-01-01T01:33:49.225Z,1238
2023-01-01T01:34:49.218Z,1277
2023-01-01T01:35:49.192Z,964
2023-01-01T01:37:49.406Z,981
2023-01-01T01:38:49.196Z,1181
2023-01-01T01:39:53.549Z,1212
2023-01-01T01:40:49.196Z,967
2023-01-01T01:42:49.403Z,997
2023-01-01T01:43:49.194Z,923
2023-01-01T01:44:49.224Z,959
2023-01-01T01:45:49.298Z,933
2023-01-01T01:47:49.357Z,1238
2023-01-01T01:48:49.206Z,1207
2023-01-01T01:49:49.218Z,1220
2023-01-01T01:50:49.230Z,1224
2023-01-01T01:52:49.402Z,1207
2023-01-01T01:53:49.224Z,1228
2023-01-01T01:54:49.200Z,1235
2023-01-01T01:55:49.206Z,1140
2023-01-01T01:57:49.410Z,933
2023-01-01T01:58:49.232Z,887
2023-01-01T01:59:49.200Z,895
2023-01-01T02:00:49.236Z,1204
2023-01-01T02:02:49.584Z,905
2023-01-01T02:03:49.241Z,1220
2023-01-01T02:04:49.240Z,1228
2023-01-01T02:05:49.236Z,918
2023-01-01T02:07:49.371Z,1099
2023-01-01T02:08:49.218Z,1212
2023-01-01T02:09:49.230Z,1178
2023-01-01T02:10:49.210Z,897
2023-01-01T02:12:49.364Z,1156
2023-01-01T02:13:49.234Z,977
2023-01-01T02:14:49.212Z,977
2023-01-01T02:15:49.258Z,887
2023-01-01T02:17:49.371Z,925
2023-01-01T02:18:49.220Z,838
2023-01-01T02:19:49.220Z,1137
2023-01-01T02:20:49.258Z,1131
2023-01-01T02:22:49.412Z,517
2023-01-01T02:23:49.226Z,1150
2023-01-01T02:24:49.246Z,1168
2023-01-01T02:25:49.242Z,1171
2023-01-01T02:27:49.374Z,891
2023-01-01T02:28:49.244Z,865
2023-01-01T02:29:49.216Z,882
2023-01-01T02:30:49.324Z,880
2023-01-01T02:32:49.421Z,891
2023-01-01T02:33:49.245Z,853
2023-01-01T02:34:49.224Z,865
2023-01-01T02:35:49.238Z,851
2023-01-01T02:37:49.379Z,1125
2023-01-01T02:38:49.226Z,865
2023-01-01T02:39:49.225Z,1041
2023-01-01T02:40:49.248Z,1248
2023-01-01T02:41:49.230Z,1181
2023-01-01T02:43:13.615Z,400
2023-01-01T02:44:13.671Z,400
2023-01-01T02:45:13.619Z,574
2023-01-01T02:47:13.808Z,577
2023-01-01T02:48:13.644Z,416
2023-01-01T02:49:13.598Z,400
2023-01-01T02:50:13.621Z,411
2023-01-01T02:52:13.802Z,589
2023-01-01T02:53:13.602Z,665
2023-01-01T02:54:13.618Z,679
2023-01-01T02:55:13.620Z,699
2023-01-01T02:57:13.779Z,730
2023-01-01T02:58:13.629Z,446
2023-01-01T02:59:13.604Z,542
2023-01-01T03:00:13.612Z,660
2023-01-01T03:02:13.998Z,804
2023-01-01T03:03:13.667Z,793
2023-01-01T03:04:13.620Z,802
2023-01-01T03:05:13.617Z,785
2023-01-01T03:07:13.811Z,679
2023-01-01T03:08:13.649Z,574
2023-01-01T03:09:13.658Z,768
2023-01-01T03:10:13.608Z,577
2023-01-01T03:12:13.785Z,737
2023-01-01T03:13:13.624Z,815
2023-01-01T03:14:13.616Z,735
2023-01-01T03:15:13.626Z,806
2023-01-01T03:17:13.817Z,897
2023-01-01T03:18:13.643Z,564
2023-01-01T03:19:13.636Z,674
2023-01-01T03:20:13.616Z,905
2023-01-01T03:22:13.815Z,913
2023-01-01T03:23:13.608Z,872
2023-01-01T03:24:13.632Z,763
2023-01-01T03:25:13.631Z,776
2023-01-01T03:26:13.611Z,832
2023-01-01T03:27:13.815Z,626
2023-01-01T03:28:13.610Z,640
2023-01-01T03:29:13.638Z,785
2023-01-01T03:30:13.629Z,627
2023-01-01T03:31:13.720Z,615
2023-01-01T03:32:13.797Z,808
2023-01-01T03:33:13.623Z,749
2023-01-01T03:34:13.623Z,665
2023-01-01T03:35:13.616Z,674
2023-01-01T03:36:13.634Z,660
2023-01-01T03:37:13.823Z,872
2023-01-01T03:38:13.631Z,885
2023-01-01T03:39:13.646Z,827
2023-01-01T03:40:13.647Z,686
2023-01-01T03:41:13.625Z,895
2023-01-01T03:42:13.851Z,668
2023-01-01T03:43:13.655Z,730
2023-01-01T03:44:13.665Z,846
2023-01-01T03:45:13.630Z,675
2023-01-01T03:46:13.655Z,697
2023-01-01T03:47:13.868Z,836
2023-01-01T03:48:13.631Z,848
2023-01-01T03:49:13.625Z,857
2023-01-01T03:50:13.657Z,810
2023-01-01T03:51:13.651Z,715
2023-01-01T03:52:13.862Z,649
2023-01-01T03:53:13.648Z,694
2023-01-01T03:54:13.624Z,977
2023-01-01T03:55:13.668Z,726
2023-01-01T03:56:13.626Z,933
2023-01-01T03:57:13.837Z,682
2023-01-01T03:58:13.634Z,624
2023-01-01T03:59:13.645Z,660
2023-01-01T04:00:13.662Z,763
2023-01-01T04:01:13.667Z,671
2023-01-01T04:02:13.821Z,656
2023-01-01T04:03:13.665Z,970
2023-01-01T04:04:13.688Z,997
2023-01-01T04:05:13.641Z,631
2023-01-01T04:06:13.670Z,915
2023-01-01T04:07:15.367Z,1014
2023-01-01T04:08:13.665Z,930
2023-01-01T04:09:13.642Z,930
2023-01-01T04:10:13.637Z,855
2023-01-01T04:11:13.667Z,678
2023-01-01T04:12:13.839Z,870
2023-01-01T04:13:13.660Z,872
2023-01-01T04:14:13.661Z,897
2023-01-01T04:15:13.658Z,880
2023-01-01T04:16:13.704Z,660
2023-01-01T04:17:13.845Z,897
2023-01-01T04:18:13.668Z,656
2023-01-01T04:19:13.627Z,694
2023-01-01T04:20:13.658Z,882
2023-01-01T04:21:13.669Z,637
2023-01-01T04:22:13.823Z,697
2023-01-01T04:23:13.664Z,918
2023-01-01T04:24:13.658Z,990
2023-01-01T04:25:13.663Z,840
2023-01-01T04:26:13.664Z,665
2023-01-01T04:27:13.829Z,951
2023-01-01T04:28:13.666Z,905
2023-01-01T04:29:13.667Z,874
2023-01-01T04:30:13.689Z,846
2023-01-01T04:31:13.665Z,800
2023-01-01T04:32:13.832Z,688
2023-01-01T04:33:13.712Z,915
2023-01-01T04:34:13.696Z,870
2023-01-01T04:35:13.657Z,897
2023-01-01T04:37:13.925Z,889
2023-01-01T04:38:13.719Z,897
2023-01-01T04:39:13.695Z,830
2023-01-01T04:40:13.658Z,634
2023-01-01T04:42:13.835Z,605
2023-01-01T04:43:13.660Z,626
2023-01-01T04:44:13.666Z,806
2023-01-01T04:45:13.693Z,834
2023-01-01T04:47:13.858Z,795
2023-01-01T04:48:13.655Z,653
2023-01-01T04:49:13.701Z,905
2023-01-01T04:50:13.657Z,885
2023-01-01T04:52:13.857Z,800
2023-01-01T04:53:13.672Z,819
2023-01-01T04:54:13.678Z,855
2023-01-01T04:55:13.684Z,827
2023-01-01T04:57:13.856Z,640
2023-01-01T04:58:13.680Z,633
2023-01-01T04:59:13.694Z,643
2023-01-01T05:00:13.659Z,813
2023-01-01T05:02:13.913Z,649
2023-01-01T05:03:13.712Z,694
2023-01-01T05:04:13.683Z,870
2023-01-01T05:05:13.715Z,848
2023-01-01T05:07:13.877Z,804
2023-01-01T05:08:13.681Z,529
2023-01-01T05:09:13.666Z,542
2023-01-01T05:10:13.692Z,567
2023-01-01T05:12:13.863Z,765
2023-01-01T05:13:13.663Z,909
2023-01-01T05:14:13.673Z,920
2023-01-01T05:15:13.707Z,692
2023-01-01T05:17:13.842Z,863
2023-01-01T05:18:13.691Z,546
2023-01-01T05:19:13.757Z,730
2023-01-01T05:20:13.693Z,659
2023-01-01T05:22:13.872Z,844
2023-01-01T05:23:13.690Z,678
2023-01-01T05:24:13.676Z,749
2023-01-01T05:25:13.684Z,543
2023-01-01T05:27:13.868Z,561
2023-01-01T05:28:13.663Z,602
2023-01-01T05:29:16.777Z,815
2023-01-01T05:30:13.680Z,748
2023-01-01T05:33:13.692Z,694
2023-01-01T05:34:13.760Z,589
2023-01-01T05:35:13.711Z,730
2023-01-01T05:36:13.692Z,638
2023-01-01T05:37:13.869Z,566
2023-01-01T05:38:13.685Z,633
2023-01-01T05:39:13.680Z,791
2023-01-01T05:40:13.695Z,740
2023-01-01T05:41:13.703Z,546
2023-01-01T05:42:13.876Z,732
2023-01-01T05:43:13.703Z,780
2023-01-01T05:44:13.702Z,780
2023-01-01T05:45:13.675Z,614
2023-01-01T05:46:13.722Z,618
2023-01-01T05:47:13.925Z,638
2023-01-01T05:48:13.684Z,885
2023-01-01T05:49:13.694Z,686
2023-01-01T05:50:13.721Z,907
2023-01-01T05:52:13.888Z,778
2023-01-01T05:53:13.682Z,825
2023-01-01T05:55:13.675Z,813
2023-01-01T05:57:13.889Z,620
2023-01-01T05:58:13.684Z,827
2023-01-01T05:59:13.710Z,682
2023-01-01T06:00:13.685Z,909
2023-01-01T06:02:13.995Z,927
2023-01-01T06:03:13.685Z,607
2023-01-01T06:04:13.764Z,795
2023-01-01T06:05:13.725Z,726
2023-01-01T06:07:13.891Z,650
2023-01-01T06:08:13.708Z,683
2023-01-01T06:09:13.715Z,761
2023-01-01T06:10:13.696Z,795
2023-01-01T06:12:13.892Z,759
2023-01-01T06:13:13.797Z,815
2023-01-01T06:14:13.715Z,618
2023-01-01T06:15:13.688Z,603
2023-01-01T06:17:13.887Z,637
2023-01-01T06:18:13.685Z,759
2023-01-01T06:19:13.688Z,757
2023-01-01T06:20:13.723Z,778
2023-01-01T06:22:13.899Z,785
2023-01-01T06:23:13.719Z,759
2023-01-01T06:24:13.693Z,690
2023-01-01T06:25:13.695Z,599
2023-01-01T06:27:13.895Z,588
2023-01-01T06:28:13.711Z,783
2023-01-01T06:29:13.695Z,599
2023-01-01T06:30:13.729Z,575
2023-01-01T06:32:13.872Z,768
2023-01-01T06:33:13.711Z,555
2023-01-01T06:34:13.699Z,728
2023-01-01T06:35:13.687Z,757
2023-01-01T06:37:13.907Z,588
2023-01-01T06:38:13.730Z,804
2023-01-01T06:39:13.728Z,674
2023-01-01T06:40:13.723Z,821
2023-01-01T06:42:13.906Z,617
2023-01-01T06:43:13.709Z,607
2023-01-01T06:44:13.715Z,817
2023-01-01T06:45:13.741Z,819
2023-01-01T06:47:13.899Z,699
2023-01-01T06:48:13.717Z,552
2023-01-01T06:49:13.699Z,776
2023-01-01T06:50:13.707Z,612
2023-01-01T06:52:13.941Z,783
2023-01-01T06:53:13.724Z,640
2023-01-01T06:54:13.719Z,633
2023-01-01T06:55:13.795Z,640
2023-01-01T06:57:13.905Z,640
2023-01-01T06:58:13.708Z,686
2023-01-01T06:59:13.702Z,872
2023-01-01T07:00:13.731Z,891
2023-01-01T07:02:14.058Z,800
2023-01-01T07:03:13.750Z,594
2023-01-01T07:04:13.734Z,634
2023-01-01T07:05:13.751Z,600
2023-01-01T07:07:13.908Z,603
2023-01-01T07:08:13.774Z,543
2023-01-01T07:09:13.720Z,665
2023-01-01T07:10:13.723Z,821
2023-01-01T07:12:13.887Z,629
2023-01-01T07:13:13.748Z,865
2023-01-01T07:14:13.721Z,868
2023-01-01T07:15:13.709Z,650
2023-01-01T07:17:13.925Z,868
2023-01-01T07:18:13.713Z,690
2023-01-01T07:19:13.718Z,832
2023-01-01T07:20:13.745Z,853
2023-01-01T07:22:13.912Z,815
2023-01-01T07:23:13.756Z,572
2023-01-01T07:24:13.756Z,802
2023-01-01T07:25:13.755Z,780
2023-01-01T07:27:13.931Z,618
2023-01-01T07:28:13.742Z,688
2023-01-01T07:29:13.735Z,830
2023-01-01T07:30:13.751Z,776
2023-01-01T07:32:13.974Z,810
2023-01-01T07:33:13.738Z,672
2023-01-01T07:34:13.770Z,657
2023-01-01T07:35:13.762Z,682
2023-01-01T07:37:13.901Z,675
2023-01-01T07:38:13.806Z,702
2023-01-01T07:39:13.729Z,679
2023-01-01T07:40:13.716Z,650
2023-01-01T07:42:13.936Z,694
2023-01-01T07:43:13.733Z,774
2023-01-01T07:44:13.728Z,561
2023-01-01T07:45:13.756Z,732
2023-01-01T07:47:13.931Z,699
2023-01-01T07:48:13.731Z,623
2023-01-01T07:49:13.750Z,623
2023-01-01T07:50:13.745Z,851
2023-01-01T07:52:13.934Z,633
2023-01-01T07:53:13.741Z,597
2023-01-01T07:54:13.726Z,603
2023-01-01T07:55:13.759Z,780
2023-01-01T07:57:13.927Z,802
2023-01-01T07:58:13.751Z,780
2023-01-01T07:59:17.070Z,712
2023-01-01T08:00:13.743Z,592
2023-01-01T08:02:13.974Z,774
2023-01-01T08:03:13.754Z,633
2023-01-01T08:04:13.736Z,765
2023-01-01T08:05:13.752Z,603
2023-01-01T08:07:13.912Z,620
2023-01-01T08:08:13.738Z,533
2023-01-01T08:09:13.760Z,574
2023-01-01T08:10:13.808Z,783
2023-01-01T08:12:13.952Z,776
2023-01-01T08:13:13.792Z,770
2023-01-01T08:14:13.731Z,757
2023-01-01T08:15:13.732Z,742
2023-01-01T08:17:13.944Z,508
2023-01-01T08:18:13.773Z,666
2023-01-01T08:19:13.739Z,549
2023-01-01T08:20:13.761Z,740
2023-01-01T08:22:13.939Z,740
2023-01-01T08:23:13.769Z,768
2023-01-01T08:24:13.748Z,470
2023-01-01T08:25:13.770Z,813
2023-01-01T08:27:13.957Z,778
2023-01-01T08:28:13.778Z,728
2023-01-01T08:29:13.748Z,730
2023-01-01T08:30:13.770Z,551
2023-01-01T08:32:13.925Z,498
2023-01-01T08:33:13.756Z,549
2023-01-01T08:34:13.755Z,540
2023-01-01T08:35:13.770Z,549
2023-01-01T08:37:13.966Z,683
2023-01-01T08:38:13.775Z,436
2023-01-01T08:39:13.742Z,506
2023-01-01T08:40:13.770Z,704
2023-01-01T08:42:14.014Z,546
2023-01-01T08:43:13.744Z,761
2023-01-01T08:44:13.751Z,683
2023-01-01T08:45:13.787Z,527
2023-01-01T08:47:13.981Z,772
2023-01-01T08:48:13.745Z,536
2023-01-01T08:49:13.770Z,555
2023-01-01T08:50:13.755Z,706
2023-01-01T08:52:13.963Z,715
2023-01-01T08:53:13.767Z,569
2023-01-01T08:54:13.810Z,600
2023-01-01T08:55:13.760Z,752
2023-01-01T08:57:13.963Z,543
2023-01-01T08:58:13.766Z,717
2023-01-01T08:59:13.779Z,719
2023-01-01T09:00:13.802Z,688
2023-01-01T09:02:14.157Z,491
2023-01-01T09:03:13.856Z,539
2023-01-01T09:04:15.627Z,672
2023-01-01T09:05:13.748Z,560
2023-01-01T09:07:13.972Z,679
2023-01-01T09:08:13.792Z,678
2023-01-01T09:09:13.759Z,694
2023-01-01T09:10:13.759Z,641
2023-01-01T09:12:13.969Z,730
2023-01-01T09:13:13.834Z,626
2023-01-01T09:14:13.757Z,473
2023-01-01T09:15:13.757Z,682
2023-01-01T09:17:13.973Z,697
2023-01-01T09:18:13.758Z,657
2023-01-01T09:19:13.797Z,517
2023-01-01T09:20:13.765Z,649
2023-01-01T09:22:13.966Z,699
2023-01-01T09:23:13.763Z,697
2023-01-01T09:24:13.794Z,534
2023-01-01T09:25:13.811Z,702
2023-01-01T09:27:13.971Z,712
2023-01-01T09:28:13.870Z,706
2023-01-01T09:29:13.818Z,759
2023-01-01T09:30:13.787Z,728
2023-01-01T09:32:13.946Z,668
2023-01-01T09:33:13.780Z,699
2023-01-01T09:34:13.794Z,717
2023-01-01T09:35:13.869Z,783
2023-01-01T09:37:13.944Z,798
2023-01-01T09:38:13.795Z,552
2023-01-01T09:39:13.775Z,543
2023-01-01T09:40:13.770Z,697
2023-01-01T09:42:13.980Z,717
2023-01-01T09:43:13.805Z,715
2023-01-01T09:44:13.775Z,400
2023-01-01T09:45:13.781Z,615
2023-01-01T09:47:13.949Z,778
2023-01-01T09:48:13.811Z,615
2023-01-01T09:49:13.813Z,623
2023-01-01T09:50:13.854Z,813
2023-01-01T09:52:13.948Z,672
2023-01-01T09:53:13.795Z,588
2023-01-01T09:54:13.790Z,523
2023-01-01T09:55:13.780Z,704
2023-01-01T09:57:18.156Z,599
2023-01-01T09:58:13.792Z,813
2023-01-01T09:59:13.781Z,650
2023-01-01T10:00:13.791Z,749
2023-01-01T10:02:14.004Z,830
2023-01-01T10:03:13.814Z,742
2023-01-01T10:04:13.822Z,793
2023-01-01T10:05:13.836Z,618
2023-01-01T10:07:13.988Z,730
2023-01-01T10:08:16.969Z,539
2023-01-01T10:09:13.782Z,517
2023-01-01T10:10:13.822Z,523
2023-01-01T10:12:13.989Z,551
2023-01-01T10:13:13.783Z,483
2023-01-01T10:14:13.822Z,577
2023-01-01T10:15:13.814Z,633
2023-01-01T10:17:13.998Z,754
2023-01-01T10:18:13.796Z,514
2023-01-01T10:19:13.794Z,679
2023-01-01T10:20:13.817Z,732
2023-01-01T10:22:14.000Z,517
2023-01-01T10:23:13.829Z,506
2023-01-01T10:24:13.797Z,501
2023-01-01T10:25:13.802Z,672
2023-01-01T10:27:13.983Z,717
2023-01-01T10:28:13.813Z,728
2023-01-01T10:29:13.832Z,754
2023-01-01T10:30:13.820Z,787
2023-01-01T10:32:13.998Z,602
2023-01-01T10:33:13.804Z,540
2023-01-01T10:34:13.805Z,565
2023-01-01T10:35:13.820Z,545
2023-01-01T10:37:13.997Z,612
2023-01-01T10:38:13.831Z,564
2023-01-01T10:39:13.796Z,534
2023-01-01T10:40:13.828Z,564
2023-01-01T10:42:14.033Z,757
2023-01-01T10:43:13.820Z,671
2023-01-01T10:44:13.803Z,577
2023-01-01T10:45:13.831Z,565
2023-01-01T10:47:14.004Z,560
2023-01-01T10:48:13.824Z,748
2023-01-01T10:49:13.842Z,748
2023-01-01T10:50:13.811Z,765
2023-01-01T10:52:14.029Z,740
2023-01-01T10:53:13.813Z,737
2023-01-01T10:54:13.828Z,761
2023-01-01T10:55:13.857Z,612
2023-01-01T10:57:13.987Z,708
2023-01-01T10:58:13.859Z,700
2023-01-01T10:59:13.842Z,556
2023-01-01T11:00:13.818Z,566
2023-01-01T11:02:14.240Z,565
2023-01-01T11:03:13.859Z,551
2023-01-01T11:04:13.834Z,545
2023-01-01T11:05:17.750Z,714
2023-01-01T11:07:13.993Z,679
2023-01-01T11:08:13.838Z,666
2023-01-01T11:09:13.822Z,674
2023-01-01T11:10:13.813Z,517
2023-01-01T11:12:30.915Z,679
2023-01-01T11:13:13.823Z,757
2023-01-01T11:14:13.826Z,570
2023-01-01T11:15:13.839Z,737
2023-01-01T11:17:14.018Z,565
2023-01-01T11:18:13.865Z,759
2023-01-01T11:19:14.220Z,566
2023-01-01T11:20:13.814Z,730
2023-01-01T11:22:14.022Z,712
2023-01-01T11:23:13.847Z,546
2023-01-01T11:24:13.817Z,553
2023-01-01T11:25:13.881Z,586
2023-01-01T11:27:14.029Z,542
2023-01-01T11:28:13.848Z,660
2023-01-01T11:29:13.830Z,464
2023-01-01T11:30:13.852Z,672
2023-01-01T11:32:14.012Z,678
2023-01-01T11:33:13.857Z,694
2023-01-01T11:34:13.832Z,744
2023-01-01T11:35:13.855Z,650
2023-01-01T11:37:14.016Z,577
2023-01-01T11:38:13.852Z,678
2023-01-01T11:39:13.833Z,682
2023-01-01T11:40:13.842Z,534
2023-01-01T11:42:14.017Z,668
2023-01-01T11:43:13.916Z,466
2023-01-01T11:44:13.852Z,443
2023-01-01T11:45:13.912Z,481
2023-01-01T11:47:14.052Z,480
2023-01-01T11:48:13.850Z,517
2023-01-01T11:49:13.827Z,527
2023-01-01T11:50:13.864Z,624
2023-01-01T11:52:14.017Z,515
2023-01-01T11:53:13.841Z,692
2023-01-01T11:54:13.830Z,634
2023-01-01T11:55:13.851Z,517
2023-01-01T11:57:14.017Z,690
2023-01-01T11:58:19.284Z,704
2023-01-01T11:59:13.864Z,710
2023-01-01T12:00:13.877Z,515
2023-01-01T12:02:14.123Z,710
2023-01-01T12:03:13.929Z,540
2023-01-01T12:04:13.903Z,656
2023-01-01T12:05:13.831Z,657
2023-01-01T12:07:14.023Z,475
2023-01-01T12:08:13.841Z,646
2023-01-01T12:09:18.062Z,672
2023-01-01T12:10:13.865Z,688
2023-01-01T12:12:14.047Z,702
2023-01-01T12:13:13.845Z,740
2023-01-01T12:14:13.844Z,752
2023-01-01T12:15:13.867Z,740
2023-01-01T12:17:14.047Z,624
2023-01-01T12:18:13.902Z,641
2023-01-01T12:19:13.887Z,477
2023-01-01T12:20:13.855Z,486
2023-01-01T12:22:14.051Z,643
2023-01-01T12:23:13.845Z,649
2023-01-01T12:24:13.905Z,665
2023-01-01T12:25:13.847Z,653
2023-01-01T12:27:14.077Z,665
2023-01-01T12:28:13.855Z,496
2023-01-01T12:29:13.851Z,638
2023-01-01T12:30:13.870Z,529
2023-01-01T12:32:14.063Z,584
2023-01-01T12:33:13.856Z,534
2023-01-01T12:34:13.864Z,675
2023-01-01T12:35:13.886Z,690
2023-01-01T12:37:14.062Z,675
2023-01-01T12:38:13.879Z,683
2023-01-01T12:39:13.861Z,683
2023-01-01T12:40:18.409Z,728
2023-01-01T12:42:14.070Z,508
2023-01-01T12:43:13.868Z,473
2023-01-01T12:44:13.859Z,466
2023-01-01T12:45:13.863Z,477
2023-01-01T12:47:14.060Z,620
2023-01-01T12:48:13.913Z,569
2023-01-01T12:49:13.886Z,548
2023-01-01T12:50:13.885Z,470
2023-01-01T12:52:14.056Z,575
2023-01-01T12:53:13.852Z,566
2023-01-01T12:54:13.867Z,594
2023-01-01T12:55:13.858Z,418
2023-01-01T12:57:14.038Z,460
2023-01-01T12:58:13.876Z,445
2023-01-01T12:59:13.863Z,578
2023-01-01T13:00:13.885Z,611
2023-01-01T13:02:14.114Z,629
2023-01-01T13:03:13.996Z,529
2023-01-01T13:04:13.867Z,493
2023-01-01T13:05:13.921Z,561
2023-01-01T13:07:14.063Z,463
2023-01-01T13:08:13.872Z,540
2023-01-01T13:09:13.866Z,580
2023-01-01T13:10:13.907Z,603
2023-01-01T13:12:14.108Z,634
2023-01-01T13:13:13.869Z,476
2023-01-01T13:14:13.887Z,433
2023-01-01T13:15:13.869Z,551
2023-01-01T13:17:14.092Z,697
2023-01-01T13:18:13.869Z,804
2023-01-01T13:19:13.876Z,592
2023-01-01T13:20:13.934Z,551
2023-01-01T13:22:14.082Z,536
2023-01-01T13:23:13.900Z,710
2023-01-01T13:24:13.874Z,772
2023-01-01T13:25:13.920Z,530
2023-01-01T13:27:14.059Z,714
2023-01-01T13:28:13.909Z,481
2023-01-01T13:29:13.877Z,491
2023-01-01T13:30:13.969Z,465
2023-01-01T13:32:14.064Z,448
2023-01-01T13:33:13.909Z,728
2023-01-01T13:34:13.919Z,530
2023-01-01T13:35:13.954Z,464
2023-01-01T13:37:14.066Z,640
2023-01-01T13:38:13.909Z,650
2023-01-01T13:39:13.919Z,464
2023-01-01T13:40:13.967Z,465
2023-01-01T13:42:14.108Z,618
2023-01-01T13:43:13.917Z,637
2023-01-01T13:44:13.923Z,481
2023-01-01T13:45:14.157Z,476
2023-01-01T13:47:14.114Z,634
2023-01-01T13:48:13.925Z,623
2023-01-01T13:49:13.988Z,452
2023-01-01T13:50:13.899Z,600
2023-01-01T13:52:14.065Z,594
2023-01-01T13:53:13.889Z,451
2023-01-01T13:54:13.913Z,448
2023-01-01T13:55:13.917Z,452
2023-01-01T13:57:14.103Z,454
2023-01-01T13:58:13.940Z,444
2023-01-01T13:59:13.921Z,463
2023-01-01T14:00:13.945Z,589
2023-01-01T14:02:14.181Z,617
2023-01-01T14:03:13.962Z,517
2023-01-01T14:04:13.910Z,443
2023-01-01T14:05:13.989Z,454
2023-01-01T14:07:41.145Z,597
2023-01-01T14:08:13.927Z,584
2023-01-01T14:09:13.954Z,436
2023-01-01T14:10:13.927Z,592
2023-01-01T14:12:14.108Z,446
2023-01-01T14:13:13.901Z,498
2023-01-01T14:14:13.889Z,626
2023-01-01T14:15:13.940Z,596
2023-01-01T14:17:14.081Z,575
2023-01-01T14:18:13.931Z,564
2023-01-01T14:19:16.347Z,533
2023-01-01T14:20:13.940Z,602
2023-01-01T14:22:14.088Z,597
2023-01-01T14:23:13.927Z,552
2023-01-01T14:24:13.907Z,561
2023-01-01T14:25:13.930Z,517
2023-01-01T14:27:14.107Z,517
2023-01-01T14:28:13.947Z,553
2023-01-01T14:29:13.921Z,574
2023-01-01T14:30:13.917Z,553
2023-01-01T14:32:14.177Z,553
2023-01-01T14:33:13.936Z,589
2023-01-01T14:34:13.930Z,589
2023-01-01T14:35:13.944Z,597
2023-01-01T14:37:14.118Z,602
2023-01-01T14:38:13.934Z,578
2023-01-01T14:39:13.942Z,572
2023-01-01T14:40:13.918Z,581
2023-01-01T14:42:14.124Z,545
2023-01-01T14:43:13.909Z,638
2023-01-01T14:44:13.925Z,638
2023-01-01T14:45:13.937Z,589
2023-01-01T14:47:14.101Z,589
2023-01-01T14:48:13.927Z,617
2023-01-01T14:49:13.919Z,666
2023-01-01T14:50:13.920Z,589
2023-01-01T14:52:14.123Z,657
2023-01-01T14:53:13.944Z,626
2023-01-01T14:54:13.925Z,626
2023-01-01T14:55:13.930Z,634
2023-01-01T14:57:14.105Z,626
2023-01-01T14:58:13.964Z,626
2023-01-01T14:59:13.957Z,626
2023-01-01T15:00:13.918Z,626
2023-01-01T15:02:14.283Z,660
2023-01-01T15:03:14.004Z,626
2023-01-01T15:04:13.943Z,626
2023-01-01T15:05:13.956Z,626
2023-01-01T15:07:14.148Z,744
2023-01-01T15:08:13.947Z,589
2023-01-01T15:09:13.945Z,589
2023-01-01T15:10:13.952Z,589
2023-01-01T15:12:14.131Z,589
2023-01-01T15:13:13.998Z,580
2023-01-01T15:14:13.951Z,580
2023-01-01T15:15:13.967Z,785
2023-01-01T15:17:14.116Z,785
2023-01-01T15:18:13.959Z,596
2023-01-01T15:19:13.993Z,806
2023-01-01T15:20:13.952Z,728
2023-01-01T15:22:14.115Z,851
2023-01-01T15:23:13.976Z,825
2023-01-01T15:24:13.948Z,596
2023-01-01T15:25:13.944Z,832
2023-01-01T15:27:14.131Z,611
2023-01-01T15:28:13.934Z,607
2023-01-01T15:29:13.963Z,770
2023-01-01T15:30:14.071Z,631
2023-01-01T15:32:14.140Z,863
2023-01-01T15:33:13.962Z,844
2023-01-01T15:34:13.964Z,874
2023-01-01T15:35:13.945Z,834
2023-01-01T15:37:14.150Z,795
2023-01-01T15:38:14.018Z,675
2023-01-01T15:39:13.943Z,872
2023-01-01T15:40:13.991Z,877
2023-01-01T15:42:14.141Z,872
2023-01-01T15:43:13.958Z,692
2023-01-01T15:44:13.964Z,594
2023-01-01T15:45:13.964Z,699
2023-01-01T15:47:14.131Z,857
2023-01-01T15:48:13.970Z,708
2023-01-01T15:49:13.973Z,925
2023-01-01T15:50:13.947Z,918
2023-01-01T15:52:14.141Z,795
2023-01-01T15:53:13.957Z,891
2023-01-01T15:54:14.024Z,726
2023-01-01T15:55:13.985Z,728
2023-01-01T15:57:14.144Z,730
2023-01-01T15:58:13.978Z,942
2023-01-01T15:59:13.976Z,746
2023-01-01T16:00:13.943Z,1041
2023-01-01T16:02:14.255Z,905
2023-01-01T16:03:14.011Z,838
2023-01-01T16:04:13.980Z,902
2023-01-01T16:05:13.948Z,1007
2023-01-01T16:07:14.153Z,665
2023-01-01T16:08:13.959Z,672
2023-01-01T16:09:13.952Z,733
2023-01-01T16:10:13.962Z,942
2023-01-01T16:12:14.159Z,793
2023-01-01T16:13:13.948Z,740
2023-01-01T16:14:13.979Z,774
2023-01-01T16:15:13.955Z,1012
2023-01-01T16:17:14.148Z,1065
2023-01-01T16:18:13.951Z,907
2023-01-01T16:19:13.962Z,1231
2023-01-01T16:20:13.961Z,987
2023-01-01T16:22:14.152Z,880
2023-01-01T16:23:14.059Z,808
2023-01-01T16:24:13.950Z,909
2023-01-01T16:25:13.965Z,836
2023-01-01T16:27:14.161Z,872
2023-01-01T16:28:13.997Z,1071
2023-01-01T16:29:13.984Z,730
2023-01-01T16:30:13.989Z,802
2023-01-01T16:32:14.145Z,1086
2023-01-01T16:33:13.969Z,1095
2023-01-01T16:34:13.986Z,1060
2023-01-01T16:35:14.033Z,1077